createdAt,value
2023-04-06T00:02:02.937Z,51.42
2023-04-06T00:04:31.980Z,51.31
2023-04-06T00:06:59.925Z,51.09
2023-04-06T00:09:27.954Z,51.46
2023-04-06T00:11:55.975Z,51.52
2023-04-06T00:14:23.631Z,51.68
2023-04-06T00:16:51.650Z,51.83
2023-04-06T00:19:19.374Z,52.12
2023-04-06T00:21:48.443Z,51.92
2023-04-06T00:24:16.256Z,52.14
2023-04-06T00:26:43.974Z,52.49
2023-04-06T00:29:11.686Z,52.21
2023-04-06T00:31:39.424Z,52.59
2023-04-06T00:34:07.758Z,52.75
2023-04-06T00:36:35.459Z,52.52
2023-04-06T00:39:04.633Z,52.34
2023-04-06T00:41:32.437Z,52.20
2023-04-06T00:44:00.223Z,52.07
2023-04-06T00:46:28.137Z,52.16
2023-04-06T00:48:56.065Z,52.45
2023-04-06T00:51:24.741Z,51.94
2023-04-06T00:53:52.718Z,52.24
2023-04-06T00:56:22.195Z,52.43
2023-04-06T00:58:49.980Z,52.27
2023-04-06T01:01:17.823Z,52.46
2023-04-06T01:03:48.557Z,52.73
2023-04-06T01:06:16.255Z,52.35
2023-04-06T01:08:43.983Z,52.33
2023-04-06T01:11:11.688Z,52.46
2023-04-06T01:13:40.745Z,52.20
2023-04-06T01:16:09.038Z,52.81
2023-04-06T01:18:37.090Z,53.05
2023-04-06T01:21:04.839Z,52.66
2023-04-06T01:23:33.921Z,52.92
2023-04-06T01:26:01.530Z,53.16
2023-04-06T01:28:29.217Z,52.92
2023-04-06T01:30:56.939Z,52.89
2023-04-06T01:33:24.667Z,52.91
2023-04-06T01:35:52.350Z,53.16
2023-04-06T01:38:20.153Z,53.57
2023-04-06T01:40:49.270Z,53.38
2023-04-06T01:43:16.964Z,53.37
2023-04-06T01:45:44.719Z,53.63
2023-04-06T01:48:12.478Z,53.63
2023-04-06T01:50:40.235Z,53.79
2023-04-06T01:53:07.961Z,53.77
2023-04-06T01:55:35.632Z,53.85
2023-04-06T01:58:04.797Z,53.88
2023-04-06T02:00:32.594Z,53.69
2023-04-06T02:03:00.462Z,53.49
2023-04-06T02:05:28.397Z,53.43
2023-04-06T02:07:56.042Z,53.73
2023-04-06T02:10:23.960Z,53.61
2023-04-06T02:12:51.752Z,53.76
2023-04-06T02:15:20.838Z,54.00
2023-04-06T02:17:48.705Z,53.97
2023-04-06T02:20:16.498Z,53.86
2023-04-06T02:22:44.202Z,54.04
2023-04-06T02:25:12.820Z,54.15
2023-04-06T02:27:40.517Z,54.40
2023-04-06T02:30:09.404Z,54.86
2023-04-06T02:32:38.535Z,54.27
2023-04-06T02:35:07.069Z,54.19
2023-04-06T02:37:34.776Z,54.39
2023-04-06T02:40:02.404Z,54.19
2023-04-06T02:42:30.453Z,54.21
2023-04-06T02:44:58.128Z,54.30
2023-04-06T02:47:25.935Z,54.29
2023-04-06T02:49:54.991Z,54.48
2023-04-06T02:52:22.680Z,54.34
2023-04-06T02:54:51.969Z,54.60
2023-04-06T02:57:19.638Z,54.45
2023-04-06T02:59:47.452Z,54.55
2023-04-06T03:02:15.239Z,54.15
2023-04-06T03:04:44.212Z,54.24
2023-04-06T03:07:13.315Z,54.54
2023-04-06T03:09:41.133Z,54.48
2023-04-06T03:12:10.066Z,54.56
2023-04-06T03:14:38.006Z,54.80
2023-04-06T03:17:05.872Z,54.97
2023-04-06T03:19:33.726Z,54.92
2023-04-06T03:22:01.450Z,54.47
2023-04-06T03:24:30.586Z,54.64
2023-04-06T03:26:58.485Z,54.91
2023-04-06T03:29:26.387Z,54.46
2023-04-06T03:31:54.074Z,54.81
2023-04-06T03:34:21.991Z,54.76
2023-04-06T03:36:56.618Z,54.88
2023-04-06T03:39:36.198Z,54.98
2023-04-06T03:42:03.906Z,55.04
2023-04-06T03:44:31.556Z,55.16
2023-04-06T03:46:59.292Z,54.72
2023-04-06T03:49:27.038Z,55.08
2023-04-06T03:51:54.928Z,54.86
2023-04-06T03:54:22.571Z,54.97
2023-04-06T03:56:51.640Z,54.93
2023-04-06T03:59:19.403Z,54.79
2023-04-06T04:01:47.170Z,55.14
2023-04-06T04:04:14.949Z,55.25
2023-04-06T04:06:42.619Z,55.27
2023-04-06T04:09:10.546Z,55.49
2023-04-06T04:11:38.545Z,55.55
2023-04-06T04:14:07.623Z,55.25
2023-04-06T04:16:35.593Z,55.21
2023-04-06T04:19:03.332Z,55.45
2023-04-06T04:21:32.298Z,55.32
2023-04-06T04:24:00.046Z,55.31
2023-04-06T04:26:27.786Z,55.33
2023-04-06T04:28:55.478Z,55.49
2023-04-06T04:31:24.704Z,55.66
2023-04-06T04:33:52.483Z,55.74
2023-04-06T04:36:20.222Z,55.92
2023-04-06T04:38:47.937Z,55.84
2023-04-06T04:41:15.558Z,55.71
2023-04-06T04:43:43.251Z,55.95
2023-04-06T04:46:11.015Z,55.95
2023-04-06T04:48:40.859Z,55.43
2023-04-06T04:51:08.564Z,55.67
2023-04-06T04:53:36.267Z,55.37
2023-04-06T04:56:04.006Z,55.65
2023-04-06T04:58:31.727Z,55.54
2023-04-06T05:00:59.396Z,55.55
2023-04-06T05:03:28.227Z,55.51
2023-04-06T05:05:57.369Z,55.42
2023-04-06T05:08:25.000Z,55.59
2023-04-06T05:10:52.750Z,55.68
2023-04-06T05:13:20.595Z,55.71
2023-04-06T05:15:48.346Z,55.56
2023-04-06T05:18:16.177Z,55.83
2023-04-06T05:20:44.706Z,55.51
2023-04-06T05:23:13.825Z,55.49
2023-04-06T05:25:41.720Z,55.74
2023-04-06T05:28:09.453Z,55.52
2023-04-06T05:30:37.476Z,55.17
2023-04-06T05:33:05.297Z,55.09
2023-04-06T05:35:32.989Z,55.30
2023-04-06T05:38:01.254Z,55.55
2023-04-06T05:40:30.600Z,55.37
2023-04-06T05:42:58.539Z,55.23
2023-04-06T05:45:26.189Z,55.37
2023-04-06T05:47:53.943Z,55.18
2023-04-06T05:50:21.941Z,55.26
2023-04-06T05:52:49.719Z,55.58
2023-04-06T05:55:17.513Z,55.28
2023-04-06T05:57:46.570Z,55.58
2023-04-06T06:00:15.535Z,55.63
2023-04-06T06:02:43.355Z,55.24
2023-04-06T06:05:11.612Z,55.37
2023-04-06T06:07:39.410Z,55.49
2023-04-06T06:10:08.096Z,55.50
2023-04-06T06:12:35.718Z,54.84
2023-04-06T06:15:05.295Z,54.39
2023-04-06T06:17:33.075Z,54.51
2023-04-06T06:20:00.910Z,53.96
2023-04-06T06:22:28.526Z,54.66
2023-04-06T06:24:56.418Z,54.47
2023-04-06T06:27:24.150Z,54.24
2023-04-06T06:29:51.903Z,54.36
2023-04-06T06:32:21.047Z,53.94
2023-04-06T06:34:48.733Z,54.03
2023-04-06T06:37:16.350Z,54.54
2023-04-06T06:39:44.116Z,53.89
2023-04-06T06:42:14.128Z,54.21
2023-04-06T06:44:42.455Z,54.53
2023-04-06T06:47:10.275Z,54.45
2023-04-06T06:49:39.325Z,54.03
2023-04-06T06:52:06.937Z,54.03
2023-04-06T06:54:34.645Z,54.04
2023-04-06T06:57:02.332Z,53.30
2023-04-06T06:59:30.024Z,54.16
2023-04-06T07:01:57.684Z,54.56
2023-04-06T07:04:25.350Z,54.00
2023-04-06T07:06:54.518Z,54.01
2023-04-06T07:09:22.292Z,54.22
2023-04-06T07:11:50.224Z,54.06
2023-04-06T07:14:18.001Z,54.56
2023-04-06T07:16:47.875Z,53.01
2023-04-06T07:19:15.542Z,53.48
2023-04-06T07:21:43.189Z,53.63
2023-04-06T07:24:12.258Z,53.72
2023-04-06T07:26:39.978Z,53.11
2023-04-06T07:29:07.900Z,53.54
2023-04-06T07:31:36.541Z,53.80
2023-04-06T07:34:04.279Z,53.38
2023-04-06T07:36:32.120Z,53.06
2023-04-06T07:38:59.723Z,53.22
2023-04-06T07:41:28.846Z,53.02
2023-04-06T07:43:56.571Z,51.97
2023-04-06T07:46:24.419Z,52.19
2023-04-06T07:48:52.402Z,53.12
2023-04-06T07:51:20.185Z,53.01
2023-04-06T07:53:47.949Z,51.38
2023-04-06T07:56:16.365Z,51.92
2023-04-06T07:58:45.875Z,52.53
2023-04-06T08:01:13.574Z,51.56
2023-04-06T08:03:41.761Z,50.77
2023-04-06T08:06:09.498Z,51.04
2023-04-06T08:08:37.276Z,50.81
2023-04-06T08:11:04.957Z,49.81
2023-04-06T08:13:32.604Z,50.71
2023-04-06T08:16:02.141Z,50.22
2023-04-06T08:18:30.877Z,50.70
2023-04-06T08:20:58.921Z,49.87
2023-04-06T08:23:26.615Z,49.16
2023-04-06T08:25:55.168Z,48.16
2023-04-06T08:28:23.039Z,47.79
2023-04-06T08:30:50.845Z,48.02
2023-04-06T08:33:19.877Z,47.11
2023-04-06T08:35:47.554Z,45.78
2023-04-06T08:38:15.361Z,46.55
2023-04-06T08:40:45.206Z,46.53
2023-04-06T08:43:15.928Z,46.37
2023-04-06T08:45:44.816Z,46.30
2023-04-06T08:49:41.598Z,46.46
2023-04-06T08:52:10.222Z,46.86
2023-04-06T08:54:37.852Z,46.80
2023-04-06T08:57:05.876Z,47.06
2023-04-06T08:59:34.015Z,45.80
2023-04-06T09:02:05.952Z,46.82
2023-04-06T09:04:34.232Z,45.49
2023-04-06T09:07:03.566Z,45.51
2023-04-06T09:09:31.334Z,45.17
2023-04-06T09:12:04.472Z,45.39
2023-04-06T09:14:36.813Z,46.63
2023-04-06T09:17:04.542Z,45.95
2023-04-06T09:19:32.218Z,46.00
2023-04-06T09:22:08.485Z,46.32
2023-04-06T09:24:43.923Z,46.16
2023-04-06T09:27:11.647Z,45.56
2023-04-06T09:29:39.356Z,45.57
2023-04-06T09:32:08.289Z,45.69
2023-04-06T09:34:36.253Z,44.62
2023-04-06T09:37:16.114Z,45.34
2023-04-06T09:39:44.130Z,45.21
2023-04-06T09:42:12.153Z,45.44
2023-04-06T09:44:39.859Z,44.67
2023-04-06T09:47:09.538Z,44.28
2023-04-06T09:49:37.389Z,43.89
2023-04-06T09:52:06.327Z,44.92
2023-04-06T09:54:37.129Z,44.58
2023-04-06T09:57:12.606Z,43.93
2023-04-06T09:59:46.729Z,43.48
2023-04-06T10:02:20.641Z,43.24
2023-04-06T10:04:52.397Z,43.09
2023-04-06T10:07:20.712Z,42.46
2023-04-06T10:09:50.010Z,41.98
2023-04-06T10:12:18.383Z,41.41
2023-04-06T10:14:46.176Z,40.48
2023-04-06T10:17:13.770Z,39.92
2023-04-06T10:19:46.896Z,39.90
2023-04-06T10:22:17.830Z,39.36
2023-04-06T10:24:45.614Z,39.53
2023-04-06T10:27:14.751Z,38.58
2023-04-06T10:29:47.539Z,39.10
2023-04-06T10:32:15.333Z,39.17
2023-04-06T10:34:43.008Z,39.68
2023-04-06T10:37:15.526Z,38.64
2023-04-06T10:39:50.140Z,38.18
2023-04-06T10:42:19.259Z,38.73
2023-04-06T10:44:47.460Z,39.08
2023-04-06T10:47:19.420Z,37.51
2023-04-06T10:49:47.080Z,38.63
2023-04-06T10:52:14.876Z,38.66
2023-04-06T10:54:44.946Z,38.36
2023-04-06T10:57:12.665Z,38.23
2023-04-06T10:59:46.246Z,37.89
2023-04-06T11:02:22.751Z,36.76
2023-04-06T11:04:58.200Z,37.26
2023-04-06T11:07:26.712Z,38.23
2023-04-06T11:10:12.585Z,36.71
2023-04-06T11:12:42.276Z,37.13
2023-04-06T11:15:12.320Z,36.77
2023-04-06T11:17:40.154Z,36.65
2023-04-06T11:20:12.285Z,37.55
2023-04-06T11:22:50.718Z,37.48
2023-04-06T11:25:18.591Z,36.72
2023-04-06T11:27:47.155Z,36.86
2023-04-06T11:30:16.706Z,36.56
2023-04-06T11:32:46.079Z,37.40
2023-04-06T11:35:16.408Z,37.59
2023-04-06T11:37:45.294Z,38.21
2023-04-06T11:40:13.127Z,37.96
2023-04-06T11:42:40.963Z,37.61
2023-04-06T11:45:10.112Z,37.60
2023-04-06T11:47:39.514Z,37.77
2023-04-06T11:50:08.453Z,38.29
2023-04-06T11:52:36.103Z,38.79
2023-04-06T11:55:13.489Z,38.82
2023-04-06T11:57:42.279Z,38.40
2023-04-06T12:00:11.431Z,38.23
2023-04-06T12:02:40.930Z,38.35
2023-04-06T12:05:09.530Z,38.05
2023-04-06T12:07:37.355Z,37.98
2023-04-06T12:10:05.991Z,38.12
2023-04-06T12:12:33.785Z,37.48
2023-04-06T12:15:01.936Z,38.06
2023-04-06T12:17:29.632Z,37.48
2023-04-06T12:20:05.390Z,37.86
2023-04-06T12:22:33.662Z,38.25
2023-04-06T12:25:01.324Z,38.16
2023-04-06T12:27:28.999Z,37.71
2023-04-06T12:29:56.639Z,38.17
2023-04-06T12:32:24.357Z,38.42
2023-04-06T12:34:54.037Z,39.66
2023-04-06T12:37:23.160Z,39.53
2023-04-06T12:39:51.124Z,39.45
2023-04-06T12:42:18.739Z,40.19
2023-04-06T12:44:48.056Z,40.57
2023-04-06T12:47:15.854Z,41.22
2023-04-06T12:49:43.925Z,41.49
2023-04-06T12:52:12.788Z,41.68
2023-04-06T12:56:25.494Z,42.15
2023-04-06T12:58:54.007Z,42.13
2023-04-06T13:01:22.267Z,42.69
2023-04-06T13:03:50.009Z,41.65
2023-04-06T13:06:17.768Z,41.47
2023-04-06T13:08:45.462Z,40.56
2023-04-06T13:11:13.416Z,40.01
2023-04-06T13:13:42.523Z,40.72
2023-04-06T13:16:10.778Z,41.44
2023-04-06T13:18:39.824Z,42.39
2023-04-06T13:21:08.121Z,42.79
2023-04-06T13:23:36.267Z,42.98
2023-04-06T13:26:05.412Z,43.72
2023-04-06T13:28:33.848Z,43.72
2023-04-06T13:31:04.186Z,43.17
2023-04-06T13:33:32.485Z,42.92
2023-04-06T13:36:00.780Z,43.18
2023-04-06T13:38:28.664Z,42.54
2023-04-06T13:40:56.971Z,43.35
2023-04-06T13:43:27.108Z,43.11
2023-04-06T13:45:56.464Z,43.52
2023-04-06T13:48:26.556Z,43.87
2023-04-06T13:50:54.412Z,43.79
2023-04-06T13:53:22.160Z,44.26
2023-04-06T13:55:55.413Z,44.29
2023-04-06T13:58:23.175Z,44.44
2023-04-06T14:00:50.920Z,45.59
2023-04-06T14:03:18.837Z,47.89
2023-04-06T14:05:48.157Z,48.29
2023-04-06T14:08:15.972Z,47.82
2023-04-06T14:10:43.849Z,48.03
2023-04-06T14:13:11.557Z,49.26
2023-04-06T14:15:39.673Z,49.56
2023-04-06T14:18:07.633Z,49.24
2023-04-06T14:20:35.365Z,50.72
2023-04-06T14:23:04.771Z,51.78
2023-04-06T14:25:33.547Z,51.30
2023-04-06T14:28:02.115Z,51.55
2023-04-06T14:30:29.919Z,51.17
2023-04-06T14:32:58.891Z,51.83
2023-04-06T14:35:29.089Z,53.40
2023-04-06T14:37:57.859Z,53.93
2023-04-06T14:40:27.054Z,54.77
2023-04-06T14:42:56.562Z,56.44
2023-04-06T14:45:24.254Z,57.74
2023-04-06T14:47:52.132Z,58.92
2023-04-06T14:50:20.018Z,59.54
2023-04-06T14:52:47.887Z,61.10
2023-04-06T14:55:16.939Z,62.13
2023-04-06T14:57:46.148Z,63.69
2023-04-06T15:00:15.054Z,64.27
2023-04-06T15:02:44.265Z,64.67
2023-04-06T15:05:12.260Z,66.22
2023-04-06T15:07:39.929Z,66.29
2023-04-06T15:10:10.845Z,67.61
2023-04-06T15:12:40.273Z,68.37
2023-04-06T15:15:10.681Z,68.26
2023-04-06T15:17:38.545Z,69.77
2023-04-06T15:20:07.609Z,68.59
2023-04-06T15:22:35.400Z,69.11
2023-04-06T15:25:03.075Z,69.95
2023-04-06T15:27:31.083Z,70.24
2023-04-06T15:29:59.428Z,69.83
2023-04-06T15:32:28.688Z,70.81
2023-04-06T15:34:58.248Z,71.07
2023-04-06T15:37:25.930Z,71.48
2023-04-06T15:39:53.603Z,71.69
2023-04-06T15:42:21.217Z,71.60
2023-04-06T15:44:48.923Z,71.55
2023-04-06T15:47:16.977Z,71.80
2023-04-06T15:49:46.121Z,72.26
2023-04-06T15:52:13.733Z,72.86
2023-04-06T15:54:42.028Z,73.13
2023-04-06T15:57:09.693Z,73.39
2023-04-06T15:59:37.465Z,73.67
2023-04-06T16:02:05.775Z,74.11
2023-04-06T16:04:33.884Z,74.90
2023-04-06T16:07:03.150Z,74.72
2023-04-06T16:09:30.915Z,75.51
2023-04-06T16:11:58.576Z,75.60
2023-04-06T16:14:26.221Z,75.62
2023-04-06T16:16:54.949Z,75.76
2023-04-06T16:19:22.632Z,76.14
2023-04-06T16:21:50.288Z,76.30
2023-04-06T16:24:19.351Z,76.67
2023-04-06T16:26:48.300Z,76.70
2023-04-06T16:29:17.251Z,76.70
2023-04-06T16:31:47.237Z,77.52
2023-04-06T16:34:15.547Z,77.21
2023-04-06T16:36:43.266Z,77.46
2023-04-06T16:39:11.409Z,77.55
2023-04-06T16:41:40.796Z,77.97
2023-04-06T16:44:09.144Z,78.33
2023-04-06T16:46:38.307Z,78.62
2023-04-06T16:49:06.865Z,78.35
2023-04-06T16:51:34.562Z,78.78
2023-04-06T16:54:02.914Z,78.31
2023-04-06T16:56:30.841Z,78.85
2023-04-06T16:58:59.998Z,79.03
2023-04-06T17:01:28.777Z,79.24
2023-04-06T17:03:57.347Z,79.55
2023-04-06T17:06:27.098Z,79.13
2023-04-06T17:08:54.920Z,79.80
2023-04-06T17:11:28.029Z,80.28
2023-04-06T17:14:01.825Z,80.02
2023-04-06T17:16:29.726Z,80.07
2023-04-06T17:18:57.787Z,80.58
2023-04-06T17:21:26.359Z,80.38
2023-04-06T17:23:54.141Z,80.42
2023-04-06T17:26:22.649Z,80.60
2023-04-06T17:28:50.336Z,80.78
2023-04-06T17:31:19.494Z,80.87
2023-04-06T17:33:47.564Z,81.29
2023-04-06T17:36:15.568Z,81.43
2023-04-06T17:38:45.718Z,81.33
2023-04-06T17:41:14.190Z,81.36
2023-04-06T17:43:42.122Z,81.64
2023-04-06T17:46:10.012Z,81.38
2023-04-06T17:48:39.150Z,80.84
2023-04-06T17:51:07.061Z,81.49
2023-04-06T17:53:36.619Z,81.67
2023-04-06T17:56:04.582Z,81.71
2023-04-06T17:58:32.329Z,81.81
2023-04-06T18:01:00.098Z,82.36
2023-04-06T18:03:28.214Z,82.39
2023-04-06T18:05:57.712Z,82.56
2023-04-06T18:08:25.444Z,82.57
2023-04-06T18:10:53.119Z,82.73
2023-04-06T18:13:21.251Z,82.62
2023-04-06T18:15:48.950Z,83.16
2023-04-06T18:18:17.063Z,83.15
2023-04-06T18:20:44.766Z,82.67
2023-04-06T18:23:14.038Z,82.84
2023-04-06T18:25:41.883Z,82.93
2023-04-06T18:28:10.686Z,82.78
2023-04-06T18:30:38.484Z,82.72
2023-04-06T18:33:07.576Z,83.01
2023-04-06T18:35:35.380Z,82.98
2023-04-06T18:38:03.039Z,83.33
2023-04-06T18:40:39.844Z,83.17
2023-04-06T18:43:09.200Z,83.16
2023-04-06T18:45:38.740Z,83.58
2023-04-06T18:48:07.342Z,83.46
2023-04-06T18:50:35.359Z,83.60
2023-04-06T18:53:03.274Z,83.55
2023-04-06T18:55:33.698Z,83.64
2023-04-06T18:58:02.918Z,84.41
2023-04-06T19:00:30.675Z,84.00
2023-04-06T19:02:58.549Z,84.22
2023-04-06T19:05:26.607Z,84.24
2023-04-06T19:07:54.340Z,84.18
2023-04-06T19:10:22.107Z,84.23
2023-04-06T19:12:49.791Z,84.33
2023-04-06T19:15:18.988Z,84.46
2023-04-06T19:17:47.830Z,84.20
2023-04-06T19:20:15.818Z,84.28
2023-04-06T19:22:44.733Z,84.47
2023-04-06T19:25:12.694Z,84.72
2023-04-06T19:27:40.447Z,84.74
2023-04-06T19:30:09.792Z,84.72
2023-04-06T19:32:39.722Z,84.86
2023-04-06T19:35:08.418Z,84.91
2023-04-06T19:37:36.663Z,84.89
2023-04-06T19:40:07.566Z,85.35
2023-04-06T19:42:35.251Z,85.42
2023-04-06T19:45:02.988Z,85.84
2023-04-06T19:47:30.816Z,85.84
2023-04-06T19:49:59.932Z,85.85
2023-04-06T19:52:28.943Z,86.05
2023-04-06T19:54:57.179Z,86.18
2023-04-06T19:57:25.831Z,86.30
2023-04-06T19:59:54.806Z,86.28
2023-04-06T20:02:22.977Z,86.45
2023-04-06T20:04:50.837Z,86.21
2023-04-06T20:07:19.942Z,86.58
2023-04-06T20:09:47.691Z,86.72
2023-04-06T20:12:15.495Z,86.92
2023-04-06T20:14:43.179Z,86.84
2023-04-06T20:17:10.919Z,86.90
2023-04-06T20:19:38.565Z,86.60
2023-04-06T20:22:06.283Z,86.74
2023-04-06T20:24:35.395Z,86.95
2023-04-06T20:27:03.157Z,86.75
2023-04-06T20:29:30.846Z,87.00
2023-04-06T20:31:59.305Z,87.38
2023-04-06T20:34:28.861Z,87.42
2023-04-06T20:36:56.715Z,87.36
2023-04-06T20:39:24.540Z,87.41
2023-04-06T20:41:54.016Z,87.29
2023-04-06T20:44:21.947Z,87.75
2023-04-06T20:46:50.037Z,87.75
2023-04-06T20:49:18.392Z,87.50
2023-04-06T20:51:46.289Z,87.86
2023-04-06T20:54:13.901Z,87.90
2023-04-06T20:56:41.603Z,88.59
2023-04-06T20:59:10.913Z,88.51
2023-04-06T21:01:38.666Z,88.27
2023-04-06T21:04:06.458Z,88.43
2023-04-06T21:06:34.291Z,88.79
2023-04-06T21:09:02.399Z,88.79
2023-04-06T21:11:30.164Z,89.03
2023-04-06T21:13:57.921Z,89.27
2023-04-06T21:16:28.002Z,89.02
2023-04-06T21:18:55.822Z,88.90
2023-04-06T21:21:23.456Z,89.17
2023-04-06T21:23:52.803Z,89.15
2023-04-06T21:26:20.584Z,88.99
2023-04-06T21:28:48.274Z,88.96
2023-04-06T21:31:16.788Z,89.12
2023-04-06T21:33:45.950Z,89.37
2023-04-06T21:36:13.737Z,89.25
2023-04-06T21:38:41.428Z,89.25
2023-04-06T21:41:09.087Z,89.39
2023-04-06T21:43:36.718Z,89.53
2023-04-06T21:46:04.888Z,89.49
2023-04-06T21:48:32.761Z,89.25
2023-04-06T21:51:01.824Z,88.92
2023-04-06T21:53:29.488Z,89.08
2023-04-06T21:55:57.400Z,88.94
2023-04-06T21:58:25.107Z,89.36
2023-04-06T22:00:52.776Z,89.16
2023-04-06T22:03:20.671Z,89.32
2023-04-06T22:05:48.507Z,89.44
2023-04-06T22:08:25.507Z,89.11
2023-04-06T22:11:01.316Z,88.98
2023-04-06T22:13:29.457Z,88.48
2023-04-06T22:15:57.158Z,89.04
2023-04-06T22:18:24.824Z,89.13
2023-04-06T22:20:52.467Z,88.81
2023-04-06T22:23:21.860Z,89.18
2023-04-06T22:25:49.917Z,89.19
2023-04-06T22:28:17.656Z,89.33
2023-04-06T22:30:45.404Z,89.21
2023-04-06T22:33:13.041Z,89.17
2023-04-06T22:35:40.972Z,89.38
2023-04-06T22:38:08.687Z,89.27
2023-04-06T22:40:37.798Z,89.33
2023-04-06T22:43:05.441Z,89.61
2023-04-06T22:45:33.079Z,89.90
2023-04-06T22:48:00.941Z,89.98
2023-04-06T22:50:28.630Z,89.75
2023-04-06T22:52:56.542Z,89.72
2023-04-06T22:55:24.300Z,89.68
2023-04-06T22:57:53.553Z,89.83
2023-04-06T23:00:21.479Z,89.56
2023-04-06T23:02:49.222Z,89.68
2023-04-06T23:05:17.117Z,89.89
2023-04-06T23:07:44.760Z,89.92
2023-04-06T23:10:12.441Z,89.62
2023-04-06T23:12:40.059Z,89.76
2023-04-06T23:15:10.505Z,89.53
2023-04-06T23:17:38.219Z,89.75
2023-04-06T23:20:07.160Z,89.89
2023-04-06T23:22:34.808Z,90.02
2023-04-06T23:25:02.488Z,89.90
2023-04-06T23:27:30.119Z,89.97
2023-04-06T23:29:57.785Z,89.63
2023-04-06T23:32:26.934Z,89.85
2023-04-06T23:34:54.598Z,89.75
2023-04-06T23:37:22.200Z,89.56
2023-04-06T23:39:49.901Z,89.44
2023-04-06T23:42:17.869Z,89.61
2023-04-06T23:44:45.636Z,89.78
2023-04-06T23:47:13.330Z,89.71
2023-04-06T23:49:42.350Z,90.17
2023-04-06T23:52:10.058Z,90.61
2023-04-06T23:54:37.778Z,90.44
2023-04-06T23:57:05.445Z,90.40
2023-04-06T23:59:33.086Z,90.29
